Time;durP1;ratioP1;P1;durP2;ratioP2;P2;SDS_P1;SDS_P2;PMS_P1;PMS_P2;Temp;Humidity;BMP_temperature;BMP_pressure;BME280_temperature;BME280_humidity;BME280_pressure;Samples;Min_cycle;Max_cycle;Signal;HPM_P1;HPM_P2
2023/09/23 00:01:20;;;;;;;0.60;0.50;;;23.80;69.90;;;;;;6241955;23;20639;-85
2023/09/23 00:03:49;;;;;;;0.47;0.45;;;23.80;69.90;;;;;;6241007;23;20197;-86
2023/09/23 00:06:20;;;;;;;1.65;0.77;;;23.80;69.90;;;;;;6242175;23;20169;-84
2023/09/23 00:08:50;;;;;;;1.65;0.52;;;23.80;69.90;;;;;;6242627;23;20189;-85
2023/09/23 00:11:19;;;;;;;0.35;0.35;;;23.80;69.90;;;;;;6241728;23;20616;-85
2023/09/23 00:13:47;;;;;;;1.08;1.02;;;23.80;70.00;;;;;;6243837;23;20166;-86
2023/09/23 00:16:19;;;;;;;1.00;0.65;;;23.80;70.00;;;;;;6241640;23;20174;-83
2023/09/23 00:18:48;;;;;;;0.85;0.70;;;23.80;70.40;;;;;;6216454;23;20174;-85
2023/09/23 00:21:16;;;;;;;0.25;0.25;;;23.80;70.50;;;;;;6243268;23;20171;-86
2023/09/23 00:23:46;;;;;;;0.88;0.60;;;23.70;70.60;;;;;;6240689;23;20192;-87
2023/09/23 00:26:17;;;;;;;1.30;0.75;;;23.70;70.60;;;;;;6243899;23;20189;-86
2023/09/23 00:28:46;;;;;;;0.52;0.52;;;23.70;70.80;;;;;;6241792;23;20162;-85
2023/09/23 00:31:18;;;;;;;1.02;0.50;;;23.70;70.90;;;;;;6241728;23;20202;-86
2023/09/23 00:33:48;;;;;;;0.30;0.30;;;23.70;70.90;;;;;;6213107;23;20159;-84
2023/09/23 00:36:17;;;;;;;1.25;0.93;;;23.60;70.90;;;;;;6215401;23;20246;-87
2023/09/23 00:38:46;;;;;;;0.73;0.70;;;23.60;71.00;;;;;;6214915;23;20612;-87
2023/09/23 00:41:15;;;;;;;1.75;1.25;;;23.60;71.00;;;;;;6215428;23;20206;-86
2023/09/23 00:43:47;;;;;;;0.43;0.38;;;23.60;71.10;;;;;;6216288;23;20183;-87
2023/09/23 00:46:21;;;;;;;2.85;1.42;;;23.60;71.10;;;;;;6214152;23;20171;-85
2023/09/23 00:48:51;;;;;;;0.50;0.50;;;23.50;71.30;;;;;;6215055;23;20156;-86
2023/09/23 00:51:21;;;;;;;0.50;0.50;;;23.50;71.40;;;;;;6215959;23;20221;-86
2023/09/23 00:53:51;;;;;;;0.60;0.50;;;23.50;72.20;;;;;;6214613;23;20174;-87
2023/09/23 00:56:23;;;;;;;0.50;0.50;;;23.50;72.10;;;;;;6215763;23;20540;-86
2023/09/23 00:58:51;;;;;;;1.30;0.75;;;23.50;72.60;;;;;;6215048;23;20151;-86
2023/09/23 01:01:22;;;;;;;2.17;1.15;;;23.40;72.50;;;;;;6216565;23;20169;-85
2023/09/23 01:03:51;;;;;;;9.32;0.90;;;23.40;72.50;;;;;;6213829;23;20202;-86
2023/09/23 01:06:21;;;;;;;0.93;0.73;;;23.40;74.00;;;;;;6215440;23;20163;-85
2023/09/23 01:08:51;;;;;;;0.65;0.65;;;23.30;74.70;;;;;;6215703;23;20231;-84
2023/09/23 01:11:20;;;;;;;3.17;1.95;;;23.30;74.40;;;;;;6215378;23;20163;-84
2023/09/23 01:13:52;;;;;;;2.45;1.27;;;23.30;75.00;;;;;;6214047;23;20633;-85
2023/09/23 01:16:24;;;;;;;0.77;0.50;;;23.30;74.70;;;;;;6215298;23;20159;-85
2023/09/23 01:18:53;;;;;;;0.38;0.35;;;23.20;74.80;;;;;;6216065;23;20187;-87
2023/09/23 01:21:23;;;;;;;0.50;0.50;;;23.20;74.70;;;;;;6215796;23;20221;-87
2023/09/23 01:23:53;;;;;;;0.75;0.75;;;23.20;75.00;;;;;;6212127;23;20203;-85
2023/09/23 01:26:23;;;;;;;9.15;1.30;;;23.20;75.20;;;;;;6213827;23;20159;-84
2023/09/23 01:28:52;;;;;;;5.95;1.17;;;23.10;75.70;;;;;;6213646;23;20156;-86
2023/09/23 01:31:22;;;;;;;1.13;1.02;;;23.10;75.60;;;;;;6213637;23;20696;-85
2023/09/23 01:33:51;;;;;;;1.55;1.17;;;23.10;75.70;;;;;;6212498;23;20638;-87
2023/09/23 01:36:20;;;;;;;2.88;1.33;;;23.00;75.80;;;;;;6215318;23;20218;-85
2023/09/23 01:38:49;;;;;;;0.80;0.73;;;23.00;76.40;;;;;;6214054;23;20163;-85
2023/09/23 01:41:20;;;;;;;3.67;1.55;;;23.00;76.80;;;;;;6215345;23;20168;-87
2023/09/23 01:43:49;;;;;;;1.98;0.82;;;23.00;76.80;;;;;;6215397;23;20159;-87
2023/09/23 01:46:18;;;;;;;1.15;0.70;;;22.90;76.60;;;;;;6214058;23;20198;-86
2023/09/23 01:48:47;;;;;;;2.28;1.05;;;22.90;76.90;;;;;;6212999;23;20202;-84
2023/09/23 01:51:17;;;;;;;1.85;1.25;;;22.90;76.70;;;;;;6213874;23;20168;-87
2023/09/23 01:53:46;;;;;;;3.25;0.95;;;22.90;77.00;;;;;;6213504;23;20187;-85
2023/09/23 01:56:15;;;;;;;1.35;1.25;;;22.90;76.90;;;;;;6214685;23;20764;-87
2023/09/23 01:58:45;;;;;;;0.63;0.57;;;22.90;77.10;;;;;;6211876;23;20214;-86
2023/09/23 02:01:13;;;;;;;1.55;1.42;;;22.80;77.60;;;;;;6213282;23;20182;-87
2023/09/23 02:03:42;;;;;;;1.17;0.70;;;22.80;78.40;;;;;;6213212;23;20198;-86
2023/09/23 02:06:11;;;;;;;1.27;0.88;;;22.80;78.30;;;;;;6214042;23;20191;-87
2023/09/23 02:08:40;;;;;;;1.25;0.85;;;22.80;77.90;;;;;;6213189;23;20174;-84
2023/09/23 02:11:09;;;;;;;0.65;0.65;;;22.80;77.80;;;;;;6214408;23;20209;-86
2023/09/23 02:13:40;;;;;;;0.82;0.75;;;22.70;77.60;;;;;;6213001;23;20179;-87
2023/09/23 02:16:11;;;;;;;0.40;0.38;;;22.70;77.70;;;;;;6212230;23;20171;-85
2023/09/23 02:18:41;;;;;;;1.08;0.70;;;22.70;77.90;;;;;;6185373;23;20963;-85
2023/09/23 02:21:12;;;;;;;1.35;1.25;;;22.70;77.90;;;;;;6214323;23;20171;-86
2023/09/23 02:23:41;;;;;;;1.77;0.60;;;22.70;78.00;;;;;;6212988;23;20171;-89
2023/09/23 02:26:11;;;;;;;0.40;0.40;;;22.70;78.50;;;;;;6210323;23;20678;-86
2023/09/23 02:28:40;;;;;;;0.40;0.40;;;22.70;78.50;;;;;;6212965;23;20206;-85
2023/09/23 02:31:10;;;;;;;2.08;1.02;;;22.60;79.10;;;;;;6213369;23;20632;-87
2023/09/23 02:33:39;;;;;;;1.63;1.52;;;22.60;79.50;;;;;;6213536;23;20241;-85
2023/09/23 02:36:08;;;;;;;1.63;1.52;;;22.60;79.40;;;;;;6211331;23;20632;-84
2023/09/23 02:38:37;;;;;;;1.05;0.88;;;22.60;79.70;;;;;;6211540;23;20182;-87
2023/09/23 02:41:06;;;;;;;1.48;1.05;;;22.50;80.00;;;;;;6213594;23;20175;-87
2023/09/23 02:43:35;;;;;;;0.93;0.88;;;22.50;80.30;;;;;;6212718;23;20238;-87
2023/09/23 02:46:05;;;;;;;2.25;0.70;;;22.50;80.80;;;;;;6212252;23;20226;-85
2023/09/23 02:48:36;;;;;;;1.05;1.05;;;22.40;80.30;;;;;;6212679;23;20160;-86
2023/09/23 02:51:04;;;;;;;0.90;0.73;;;22.40;80.30;;;;;;6212134;23;20162;-86
2023/09/23 02:53:33;;;;;;;0.63;0.63;;;22.50;80.30;;;;;;6213087;23;20169;-85
2023/09/23 02:56:08;;;;;;;2.50;1.23;;;22.40;80.50;;;;;;6214177;23;20185;-84
2023/09/23 02:58:38;;;;;;;1.25;0.95;;;22.40;80.50;;;;;;6187637;23;20620;-84
2023/09/23 03:01:09;;;;;;;1.27;1.17;;;22.40;80.70;;;;;;6184624;23;20171;-85
2023/09/23 03:03:40;;;;;;;1.42;0.98;;;22.40;81.10;;;;;;6210929;23;20170;-85
2023/09/23 03:06:10;;;;;;;1.05;0.77;;;22.40;81.40;;;;;;6188356;23;20656;-87
2023/09/23 03:08:43;;;;;;;1.67;1.30;;;22.30;82.00;;;;;;6212235;23;20303;-85
2023/09/23 03:11:17;;;;;;;1.00;0.85;;;22.30;81.80;;;;;;6213216;23;20155;-86
2023/09/23 03:13:46;;;;;;;2.50;1.88;;;22.30;81.80;;;;;;6207969;23;20183;-86
2023/09/23 03:16:28;;;;;;;2.00;1.80;;;22.30;82.70;;;;;;6213083;23;20210;-84
2023/09/23 03:19:10;;;;;;;3.28;2.83;;;22.30;83.10;;;;;;6211107;23;20163;-85
2023/09/23 03:21:42;;;;;;;4.40;1.13;;;22.30;82.90;;;;;;6213842;23;20242;-85
2023/09/23 03:24:11;;;;;;;3.92;1.15;;;22.20;83.10;;;;;;6213069;23;20167;-86
2023/09/23 03:26:40;;;;;;;1.00;0.90;;;22.20;82.70;;;;;;6211712;23;20675;-85
2023/09/23 03:29:09;;;;;;;1.73;1.05;;;22.20;82.70;;;;;;6213675;23;20712;-87
2023/09/23 03:31:39;;;;;;;0.55;0.55;;;22.20;82.40;;;;;;6215618;23;20551;-85
2023/09/23 03:34:13;;;;;;;2.05;1.35;;;22.20;82.50;;;;;;6241452;23;20246;-86
2023/09/23 03:36:42;;;;;;;1.25;1.15;;;22.20;82.70;;;;;;6242593;23;20168;-84
2023/09/23 03:39:10;;;;;;;0.65;0.63;;;22.20;82.60;;;;;;6241253;23;20192;-87
2023/09/23 03:41:39;;;;;;;1.27;0.95;;;22.20;83.10;;;;;;6242683;23;20204;-85
2023/09/23 03:44:08;;;;;;;1.85;1.02;;;22.20;83.30;;;;;;6241720;23;20228;-87
2023/09/23 03:46:37;;;;;;;0.65;0.65;;;22.20;83.10;;;;;;6240542;23;20191;-85
2023/09/23 03:49:06;;;;;;;0.30;0.30;;;22.10;83.00;;;;;;6217468;23;20167;-87
2023/09/23 03:51:37;;;;;;;0.55;0.55;;;22.10;83.00;;;;;;6243532;23;20224;-84
2023/09/23 03:54:06;;;;;;;4.95;0.90;;;22.10;83.00;;;;;;6215615;23;20163;-87
2023/09/23 03:56:35;;;;;;;0.57;0.57;;;22.10;82.70;;;;;;6243369;23;20635;-85
2023/09/23 03:59:05;;;;;;;0.80;0.55;;;22.10;82.60;;;;;;6243086;23;20166;-87
2023/09/23 04:01:36;;;;;;;0.30;0.30;;;22.10;82.60;;;;;;6216022;23;20225;-85
2023/09/23 04:04:07;;;;;;;10.52;1.63;;;22.10;82.50;;;;;;6242614;23;20245;-87
2023/09/23 04:06:37;;;;;;;0.32;0.32;;;22.10;82.60;;;;;;6216651;23;20217;-84
2023/09/23 04:09:10;;;;;;;1.02;0.85;;;22.10;82.50;;;;;;6241348;23;20173;-86
2023/09/23 04:11:38;;;;;;;0.60;0.55;;;22.10;82.90;;;;;;6215129;23;20166;-85
2023/09/23 04:14:07;;;;;;;0.20;0.20;;;22.10;82.60;;;;;;6243687;23;20162;-84
2023/09/23 04:16:36;;;;;;;0.63;0.63;;;22.10;82.70;;;;;;6215455;23;20652;-85
2023/09/23 04:19:05;;;;;;;0.40;0.40;;;22.10;83.10;;;;;;6242763;23;20174;-87
2023/09/23 04:21:36;;;;;;;15.35;2.75;;;22.00;83.40;;;;;;6242550;23;20158;-84
2023/09/23 04:24:06;;;;;;;0.93;0.85;;;22.00;83.80;;;;;;6243158;23;20174;-85
2023/09/23 04:26:35;;;;;;;2.28;0.95;;;22.00;83.80;;;;;;6241570;23;20221;-86
2023/09/23 04:29:04;;;;;;;1.55;0.93;;;22.00;84.30;;;;;;6243020;23;20177;-87
2023/09/23 04:31:33;;;;;;;0.52;0.52;;;21.90;84.00;;;;;;6241515;23;20221;-86
2023/09/23 04:34:02;;;;;;;0.30;0.30;;;21.90;83.80;;;;;;6213725;23;20163;-87
2023/09/23 04:36:30;;;;;;;1.08;0.98;;;21.90;83.70;;;;;;6241366;23;20202;-85
2023/09/23 04:39:22;;;;;;;0.75;0.75;;;21.90;84.20;;;;;;6239749;23;20529;-85
2023/09/23 04:41:51;;;;;;;0.50;0.50;;;21.90;84.70;;;;;;6239251;23;20202;-85
2023/09/23 04:44:20;;;;;;;1.38;0.43;;;21.90;84.90;;;;;;6241124;23;20162;-86
2023/09/23 04:46:53;;;;;;;0.73;0.52;;;21.90;85.20;;;;;;6239218;23;20205;-85
2023/09/23 04:49:22;;;;;;;1.08;0.80;;;21.90;85.00;;;;;;6243191;23;20159;-85
2023/09/23 04:51:53;;;;;;;0.30;0.30;;;21.90;85.30;;;;;;6242139;23;20209;-85
2023/09/23 04:54:27;;;;;;;0.38;0.30;;;21.90;85.30;;;;;;6243397;23;20158;-85
2023/09/23 04:57:09;;;;;;;;;;;;;;;;;;;;;
2023/09/23 04:59:41;;;;;;;1.52;1.25;;;21.90;86.00;;;;;;6241268;23;20186;-85
2023/09/23 05:02:22;;;;;;;1.50;0.65;;;21.90;86.40;;;;;;6244849;23;20176;-85
2023/09/23 05:04:54;;;;;;;0.77;0.57;;;21.90;86.60;;;;;;6243150;23;20612;-86
2023/09/23 05:07:28;;;;;;;2.40;0.75;;;21.90;86.30;;;;;;6243618;23;20559;-85
2023/09/23 05:10:07;;;;;;;0.60;0.60;;;21.90;86.20;;;;;;6258286;23;20165;-84
2023/09/23 05:12:44;;;;;;;0.55;0.55;;;21.90;87.00;;;;;;6264839;23;20155;-94
2023/09/23 05:15:14;;;;;;;0.77;0.77;;;21.90;87.80;;;;;;6266998;23;20225;-86
2023/09/23 05:17:45;;;;;;;2.50;1.63;;;21.90;88.40;;;;;;6259410;23;20167;-86
2023/09/23 05:20:19;;;;;;;4.68;1.48;;;21.90;88.90;;;;;;6262945;23;20165;-85
2023/09/23 05:23:04;;;;;;;1.42;0.93;;;21.90;88.20;;;;;;6246044;23;20221;-87
2023/09/23 05:25:41;;;;;;;1.10;0.85;;;22.00;89.10;;;;;;6247793;23;20636;-86
2023/09/23 05:28:10;;;;;;;0.50;0.50;;;22.00;89.00;;;;;;6248821;23;20200;-87
2023/09/23 05:30:41;;;;;;;0.90;0.88;;;22.00;89.20;;;;;;6248104;23;20966;-87
2023/09/23 05:33:14;;;;;;;4.60;0.80;;;22.00;89.40;;;;;;6243953;23;20285;-87
2023/09/23 05:35:43;;;;;;;0.95;0.95;;;22.00;90.20;;;;;;6244835;23;20202;-87
2023/09/23 05:38:13;;;;;;;0.95;0.95;;;22.10;89.80;;;;;;6243827;23;20698;-88
2023/09/23 05:40:56;;;;;;;1.10;0.93;;;22.10;90.10;;;;;;6243604;23;20159;-87
2023/09/23 05:43:29;;;;;;;1.05;0.82;;;22.10;90.00;;;;;;6245850;23;20162;-86
2023/09/23 05:45:57;;;;;;;0.82;0.60;;;22.10;90.40;;;;;;6244480;23;20170;-86
2023/09/23 05:48:26;;;;;;;0.50;0.50;;;22.20;90.30;;;;;;6244715;23;20221;-87
2023/09/23 05:51:04;;;;;;;0.70;0.65;;;22.20;90.20;;;;;;6243632;23;20162;-88
2023/09/23 05:53:33;;;;;;;1.83;0.68;;;22.30;90.30;;;;;;6243286;23;20241;-91
2023/09/23 05:56:03;;;;;;;1.08;0.98;;;22.30;90.10;;;;;;6241791;23;20179;-86
2023/09/23 05:58:32;;;;;;;0.68;0.68;;;22.30;90.10;;;;;;6240085;23;20180;-87
2023/09/23 06:01:00;;;;;;;1.65;0.90;;;22.40;90.10;;;;;;6240459;23;20206;-86
2023/09/23 06:03:29;;;;;;;0.32;0.32;;;22.40;90.30;;;;;;6243024;23;20186;-86
2023/09/23 06:05:58;;;;;;;0.93;0.70;;;22.50;90.10;;;;;;6244415;23;20242;-85
2023/09/23 06:08:29;;;;;;;1.40;1.15;;;22.60;90.00;;;;;;6243878;23;20226;-87
2023/09/23 06:11:04;;;;;;;1.80;0.70;;;22.60;90.00;;;;;;6244257;23;20758;-87
2023/09/23 06:13:59;;;;;;;0.98;0.70;;;22.70;90.00;;;;;;6241242;23;20170;-87
2023/09/23 06:16:27;;;;;;;0.30;0.30;;;22.80;90.00;;;;;;6242939;23;20171;-86
2023/09/23 06:18:56;;;;;;;0.57;0.47;;;22.80;89.80;;;;;;6239633;23;20193;-86
2023/09/23 06:21:25;;;;;;;1.92;1.38;;;22.90;89.90;;;;;;6243801;23;20166;-88
2023/09/23 06:23:54;;;;;;;0.60;0.60;;;23.00;89.60;;;;;;6241851;23;20475;-85
2023/09/23 06:26:24;;;;;;;1.70;1.20;;;23.00;89.50;;;;;;6244728;23;20170;-88
2023/09/23 06:28:53;;;;;;;0.70;0.65;;;23.10;89.40;;;;;;6216208;23;20190;-86
2023/09/23 06:31:22;;;;;;;0.50;0.40;;;23.10;89.20;;;;;;6242612;23;20171;-85
2023/09/23 06:33:54;;;;;;;0.50;0.50;;;23.20;89.10;;;;;;6245331;23;20159;-89
2023/09/23 06:36:26;;;;;;;0.43;0.43;;;23.30;89.70;;;;;;6245819;23;20155;-88
2023/09/23 06:38:54;;;;;;;1.50;1.35;;;23.30;88.70;;;;;;6245235;23;20170;-87
2023/09/23 06:41:25;;;;;;;1.23;0.60;;;23.40;88.60;;;;;;6245194;23;20166;-88
2023/09/23 06:43:54;;;;;;;1.25;0.70;;;23.50;88.50;;;;;;6216136;23;20163;-85
2023/09/23 06:46:23;;;;;;;0.30;0.30;;;23.50;88.30;;;;;;6245711;23;20691;-87
2023/09/23 06:48:52;;;;;;;0.80;0.40;;;23.60;88.00;;;;;;6245227;23;20252;-87
2023/09/23 06:51:20;;;;;;;1.05;0.73;;;23.70;87.80;;;;;;6245406;23;20616;-86
2023/09/23 06:53:49;;;;;;;1.30;0.90;;;23.80;87.70;;;;;;6245569;23;20670;-87
2023/09/23 06:56:18;;;;;;;0.60;0.40;;;23.90;87.40;;;;;;6245983;23;20174;-87
2023/09/23 06:58:48;;;;;;;0.55;0.55;;;23.90;87.10;;;;;;6244716;23;20624;-86
2023/09/23 07:01:17;;;;;;;1.05;0.43;;;24.00;86.80;;;;;;6245142;23;20179;-87
2023/09/23 07:03:46;;;;;;;0.65;0.40;;;24.10;86.60;;;;;;6243414;23;20162;-86
2023/09/23 07:06:15;;;;;;;0.40;0.40;;;24.20;86.40;;;;;;6245302;23;20228;-88
2023/09/23 07:08:44;;;;;;;0.85;0.85;;;24.20;86.00;;;;;;6243116;23;20218;-84
2023/09/23 07:11:13;;;;;;;0.70;0.70;;;24.30;85.80;;;;;;6245429;23;20166;-87
2023/09/23 07:13:42;;;;;;;0.90;0.77;;;24.40;85.70;;;;;;6245505;23;20170;-85
2023/09/23 07:16:15;;;;;;;0.35;0.35;;;24.50;85.50;;;;;;6244447;23;20166;-85
2023/09/23 07:18:45;;;;;;;0.68;0.57;;;24.50;85.30;;;;;;6244290;23;20166;-86
2023/09/23 07:21:14;;;;;;;2.05;0.85;;;24.60;85.20;;;;;;6244313;23;20489;-86
2023/09/23 07:23:42;;;;;;;0.73;0.65;;;24.70;85.10;;;;;;6243699;23;20171;-84
2023/09/23 07:26:12;;;;;;;0.63;0.63;;;24.80;84.90;;;;;;6243575;23;20237;-85
2023/09/23 07:28:40;;;;;;;2.40;0.73;;;24.90;84.70;;;;;;6244778;23;20190;-87
2023/09/23 07:31:11;;;;;;;0.60;0.60;;;25.00;84.40;;;;;;6244494;23;20249;-85
2023/09/23 07:33:41;;;;;;;0.47;0.43;;;25.10;84.20;;;;;;6244454;23;20525;-86
2023/09/23 07:36:11;;;;;;;0.75;0.75;;;25.10;83.90;;;;;;6244334;23;20169;-85
2023/09/23 07:38:40;;;;;;;1.70;0.80;;;25.20;83.70;;;;;;6245005;23;20481;-85
2023/09/23 07:41:09;;;;;;;6.85;0.70;;;25.30;83.50;;;;;;6243597;23;20668;-86
2023/09/23 07:43:38;;;;;;;2.75;0.90;;;25.30;83.30;;;;;;6243901;23;20217;-87
2023/09/23 07:46:07;;;;;;;0.85;0.52;;;25.40;83.20;;;;;;6244621;23;20869;-86
2023/09/23 07:48:35;;;;;;;1.13;0.43;;;25.50;83.00;;;;;;6243686;23;20233;-87
2023/09/23 07:51:06;;;;;;;0.90;0.70;;;25.60;82.70;;;;;;6243624;23;20166;-86
2023/09/23 07:53:34;;;;;;;1.05;0.68;;;25.60;82.00;;;;;;6244492;23;20162;-86
2023/09/23 07:56:03;;;;;;;0.75;0.60;;;25.70;81.90;;;;;;6243098;23;20173;-86
2023/09/23 07:58:32;;;;;;;0.73;0.73;;;25.70;81.70;;;;;;6245564;23;20221;-86
2023/09/23 08:01:03;;;;;;;0.90;0.80;;;25.80;81.40;;;;;;6243967;23;20213;-85
2023/09/23 08:03:32;;;;;;;1.17;0.93;;;25.90;81.30;;;;;;6244425;23;20655;-85
2023/09/23 08:06:01;;;;;;;1.67;1.10;;;25.90;81.10;;;;;;6244171;23;20200;-87
2023/09/23 08:08:31;;;;;;;0.68;0.50;;;26.00;80.60;;;;;;6243092;23;20208;-84
2023/09/23 08:10:59;;;;;;;2.20;0.80;;;26.10;80.50;;;;;;6244154;23;20166;-86
2023/09/23 08:13:28;;;;;;;1.10;0.90;;;26.10;80.20;;;;;;6244431;23;20229;-86
2023/09/23 08:15:58;;;;;;;9.95;0.93;;;26.20;80.20;;;;;;6243430;23;20173;-86
2023/09/23 08:18:27;;;;;;;0.80;0.65;;;26.20;80.00;;;;;;6244078;23;20208;-85
2023/09/23 08:20:59;;;;;;;2.63;0.70;;;26.30;79.60;;;;;;6243912;23;20194;-87
2023/09/23 08:23:28;;;;;;;2.00;0.57;;;26.40;79.50;;;;;;6244059;23;20170;-86
2023/09/23 08:25:58;;;;;;;3.10;0.77;;;26.50;79.30;;;;;;6243335;23;20162;-86
2023/09/23 08:28:27;;;;;;;0.68;0.57;;;26.50;79.20;;;;;;6244380;23;20193;-85
2023/09/23 08:30:56;;;;;;;0.47;0.47;;;26.60;78.80;;;;;;6243521;23;20281;-86
2023/09/23 08:33:24;;;;;;;0.50;0.50;;;26.70;78.80;;;;;;6243736;23;20190;-87
2023/09/23 08:35:53;;;;;;;1.30;0.93;;;26.70;78.70;;;;;;6243761;23;20487;-87
2023/09/23 08:38:22;;;;;;;3.60;0.75;;;26.80;78.00;;;;;;6244360;23;20197;-86
2023/09/23 08:40:53;;;;;;;0.60;0.50;;;26.80;77.40;;;;;;6243613;23;20174;-86
2023/09/23 08:43:36;;;;;;;0.40;0.40;;;27.00;77.80;;;;;;6244027;23;20216;-87
2023/09/23 08:46:06;;;;;;;2.28;0.43;;;27.00;77.30;;;;;;6243998;23;20198;-85
2023/09/23 08:48:36;;;;;;;0.50;0.50;;;27.10;77.30;;;;;;6243271;23;20567;-87
2023/09/23 08:51:07;;;;;;;0.80;0.70;;;27.20;77.10;;;;;;6243680;23;20684;-86
2023/09/23 08:53:38;;;;;;;0.82;0.45;;;27.30;76.80;;;;;;6244211;23;20504;-87
2023/09/23 08:56:08;;;;;;;0.57;0.57;;;27.30;76.50;;;;;;6238315;23;20161;-86
2023/09/23 08:58:38;;;;;;;0.47;0.47;;;27.40;76.20;;;;;;6244433;23;20249;-86
2023/09/23 09:01:07;;;;;;;0.73;0.68;;;27.50;76.20;;;;;;6245380;23;20210;-85
2023/09/23 09:03:36;;;;;;;0.98;0.82;;;27.60;75.80;;;;;;6242719;23;20193;-87
2023/09/23 09:16:56;;;;;;;;;;;;;;;;;;;;;
2023/09/23 09:30:12;;;;;;;1.00;0.77;;;28.30;72.40;;;;;;6268762;22;20231;-85
2023/09/23 09:32:43;;;;;;;1.83;1.40;;;28.40;72.60;;;;;;6279789;22;20553;-86
2023/09/23 09:35:17;;;;;;;2.03;0.57;;;28.40;72.00;;;;;;6305897;22;20202;-85
2023/09/23 09:37:49;;;;;;;0.40;0.40;;;28.60;72.20;;;;;;6305729;22;20156;-85
2023/09/23 09:40:31;;;;;;;0.30;0.30;;;28.60;71.90;;;;;;6305980;22;20161;-85
2023/09/23 09:43:01;;;;;;;1.17;0.35;;;28.70;71.50;;;;;;6304706;22;20169;-85
2023/09/23 09:45:40;;;;;;;3.50;1.40;;;28.70;71.50;;;;;;6305399;22;20643;-87
2023/09/23 09:48:11;;;;;;;0.95;0.77;;;28.80;71.10;;;;;;6279684;22;20165;-87
2023/09/23 09:50:45;;;;;;;1.10;0.93;;;28.90;71.30;;;;;;6305444;22;20166;-87
2023/09/23 09:53:15;;;;;;;0.20;0.20;;;29.00;71.20;;;;;;6305478;22;20195;-88
2023/09/23 09:55:44;;;;;;;0.60;0.40;;;29.00;70.90;;;;;;6305552;22;20177;-86
2023/09/23 09:58:13;;;;;;;0.45;0.45;;;29.10;70.50;;;;;;6280514;22;20169;-90
2023/09/23 10:00:43;;;;;;;2.00;1.08;;;29.20;70.40;;;;;;6306288;22;20171;-87
2023/09/23 10:03:15;;;;;;;0.50;0.50;;;29.20;69.50;;;;;;6307538;22;20170;-85
2023/09/23 10:05:51;;;;;;;0.52;0.52;;;29.30;69.40;;;;;;6306323;22;20167;-85
2023/09/23 10:08:24;;;;;;;1.10;0.57;;;29.40;68.30;;;;;;6307243;22;20191;-85
2023/09/23 10:11:02;;;;;;;1.60;0.90;;;29.40;68.20;;;;;;6305709;22;20189;-84
2023/09/23 10:13:33;;;;;;;2.05;1.48;;;29.50;67.30;;;;;;6307766;22;20536;-84
2023/09/23 10:16:14;;;;;;;0.47;0.35;;;29.60;66.40;;;;;;6306101;22;20161;-88
2023/09/23 10:18:45;;;;;;;0.40;0.40;;;29.70;66.50;;;;;;6306854;22;20184;-89
2023/09/23 10:21:25;;;;;;;1.20;0.68;;;29.70;66.10;;;;;;6307680;22;20154;-88
2023/09/23 10:23:56;;;;;;;0.60;0.60;;;29.80;64.80;;;;;;6306387;22;20191;-85
2023/09/23 10:26:29;;;;;;;0.40;0.40;;;29.80;64.20;;;;;;6304188;22;20244;-85
2023/09/23 10:28:58;;;;;;;1.88;1.13;;;29.90;64.70;;;;;;6302988;22;20653;-86
2023/09/23 10:31:28;;;;;;;0.68;0.52;;;30.00;64.80;;;;;;6304978;22;20175;-86
2023/09/23 10:33:57;;;;;;;0.80;0.60;;;30.10;64.40;;;;;;6305832;22;20169;-86
2023/09/23 10:36:27;;;;;;;1.40;1.00;;;30.10;64.10;;;;;;6306003;22;20167;-86
2023/09/23 10:38:56;;;;;;;0.95;0.82;;;30.20;64.50;;;;;;6306163;22;20881;-87
2023/09/23 10:41:33;;;;;;;16.35;1.67;;;30.30;64.00;;;;;;6306550;22;20251;-86
2023/09/23 10:44:02;;;;;;;1.00;0.70;;;30.30;63.40;;;;;;6305921;22;20157;-85
2023/09/23 10:46:31;;;;;;;1.88;1.27;;;30.40;63.50;;;;;;6306916;22;20614;-86
2023/09/23 10:48:59;;;;;;;3.63;2.15;;;30.50;63.80;;;;;;6305683;22;20161;-83
2023/09/23 10:51:31;;;;;;;2.15;0.70;;;30.50;62.60;;;;;;6306954;22;20165;-86
2023/09/23 10:54:01;;;;;;;0.65;0.65;;;30.60;62.50;;;;;;6304336;22;20896;-85
2023/09/23 10:56:30;;;;;;;2.47;1.77;;;30.60;62.30;;;;;;6306011;22;20165;-84
2023/09/23 10:59:02;;;;;;;1.30;0.70;;;30.70;62.20;;;;;;6303300;22;20978;-85
2023/09/23 11:01:31;;;;;;;1.50;1.02;;;30.80;62.00;;;;;;6303627;22;20673;-84
2023/09/23 11:04:00;;;;;;;0.60;0.60;;;30.90;62.40;;;;;;6303797;22;20180;-86
2023/09/23 11:06:30;;;;;;;1.23;0.98;;;30.90;61.50;;;;;;6306315;22;20165;-83
2023/09/23 11:09:01;;;;;;;3.10;1.27;;;31.00;61.60;;;;;;6304046;22;20176;-84
2023/09/23 11:11:34;;;;;;;0.30;0.30;;;31.10;60.50;;;;;;6304809;22;20531;-85
2023/09/23 11:14:02;;;;;;;11.88;1.65;;;31.10;60.40;;;;;;6305146;22;20223;-86
2023/09/23 11:16:33;;;;;;;0.43;0.43;;;31.20;60.20;;;;;;6306524;22;20169;-84
2023/09/23 11:19:07;;;;;;;0.80;0.68;;;31.30;60.00;;;;;;6306022;22;20168;-84
2023/09/23 11:21:44;;;;;;;0.50;0.50;;;31.30;60.00;;;;;;6306221;22;20218;-84
2023/09/23 11:24:12;;;;;;;0.22;0.22;;;31.30;59.30;;;;;;6307284;22;20484;-85
2023/09/23 11:26:41;;;;;;;1.75;0.88;;;31.40;59.20;;;;;;6305439;22;20172;-86
2023/09/23 11:29:11;;;;;;;0.60;0.57;;;31.40;59.30;;;;;;6306447;22;20208;-85
2023/09/23 11:31:40;;;;;;;0.75;0.70;;;31.50;59.70;;;;;;6305124;22;20562;-87
2023/09/23 11:34:10;;;;;;;1.05;0.55;;;31.60;59.60;;;;;;6306105;22;20222;-87
2023/09/23 11:36:38;;;;;;;0.57;0.57;;;31.60;59.40;;;;;;6305685;22;20502;-86
2023/09/23 11:39:12;;;;;;;0.65;0.35;;;31.70;59.20;;;;;;6305972;22;20556;-87
2023/09/23 11:41:40;;;;;;;0.70;0.60;;;31.70;59.10;;;;;;6305337;22;20528;-88
2023/09/23 11:44:12;;;;;;;1.40;1.05;;;31.80;59.10;;;;;;6306902;22;20161;-86
2023/09/23 11:46:41;;;;;;;0.50;0.50;;;31.90;58.40;;;;;;6305402;22;20173;-87
2023/09/23 11:49:10;;;;;;;2.13;0.68;;;31.90;58.40;;;;;;6305733;22;20177;-86
2023/09/23 11:51:38;;;;;;;0.50;0.50;;;31.90;58.50;;;;;;6304993;22;20195;-84
2023/09/23 11:54:12;;;;;;;1.38;1.00;;;31.90;57.90;;;;;;6305168;22;20172;-86
2023/09/23 11:56:41;;;;;;;3.58;0.60;;;32.00;57.70;;;;;;6305664;22;20244;-85
2023/09/23 11:59:11;;;;;;;4.40;1.50;;;32.10;57.20;;;;;;6306253;22;20165;-85
2023/09/23 12:01:40;;;;;;;1.50;0.98;;;32.10;57.30;;;;;;6305291;22;20171;-86
2023/09/23 12:04:11;;;;;;;0.60;0.60;;;32.10;57.20;;;;;;6306794;22;20165;-85
2023/09/23 12:06:40;;;;;;;3.20;1.45;;;32.20;57.30;;;;;;6306536;22;20521;-85
2023/09/23 12:09:10;;;;;;;2.67;1.52;;;32.20;56.80;;;;;;6306499;22;20189;-85
2023/09/23 12:11:39;;;;;;;3.90;0.73;;;32.20;56.60;;;;;;6305012;22;20189;-85
2023/09/23 12:14:09;;;;;;;1.75;1.30;;;32.30;56.00;;;;;;6302745;22;20165;-85
2023/09/23 12:16:41;;;;;;;6.35;0.90;;;32.40;56.30;;;;;;6304932;22;20179;-85
2023/09/23 12:19:11;;;;;;;1.05;0.90;;;32.40;55.90;;;;;;6305932;22;20196;-85
2023/09/23 12:21:40;;;;;;;0.88;0.47;;;32.50;55.60;;;;;;6306096;22;20173;-85
2023/09/23 12:24:15;;;;;;;2.67;1.45;;;32.50;55.70;;;;;;6305977;22;20169;-85
2023/09/23 12:26:44;;;;;;;1.13;0.90;;;32.50;54.60;;;;;;6305760;22;20247;-86
2023/09/23 12:29:12;;;;;;;0.52;0.52;;;32.60;54.80;;;;;;6306153;22;20196;-86
2023/09/23 12:31:41;;;;;;;3.42;0.90;;;32.60;54.70;;;;;;6304977;22;20560;-86
2023/09/23 12:34:10;;;;;;;0.55;0.43;;;32.60;55.10;;;;;;6305382;22;20859;-84
2023/09/23 12:36:39;;;;;;;0.50;0.50;;;32.80;55.30;;;;;;6305926;22;20173;-85
2023/09/23 12:39:07;;;;;;;0.82;0.65;;;32.80;55.30;;;;;;6305177;22;20175;-86
2023/09/23 12:41:39;;;;;;;0.50;0.30;;;32.80;55.30;;;;;;6303577;22;20164;-85
2023/09/23 12:44:08;;;;;;;0.65;0.50;;;32.80;55.20;;;;;;6305679;22;20199;-82
2023/09/23 12:46:40;;;;;;;3.60;0.57;;;32.80;55.00;;;;;;6306331;22;20489;-87
2023/09/23 12:49:09;;;;;;;1.08;0.77;;;32.90;54.50;;;;;;6305155;22;20200;-84
2023/09/23 12:51:38;;;;;;;1.90;0.77;;;32.90;54.70;;;;;;6303805;22;20192;-85
2023/09/23 12:54:08;;;;;;;0.70;0.47;;;32.90;53.90;;;;;;6304022;22;20165;-86
2023/09/23 12:56:46;;;;;;;0.60;0.60;;;33.00;54.40;;;;;;6305397;22;20179;-85
2023/09/23 12:59:17;;;;;;;0.63;0.60;;;33.00;53.90;;;;;;6305287;22;20169;-86
2023/09/23 13:01:48;;;;;;;1.30;1.13;;;33.00;53.20;;;;;;6303569;22;20165;-86
2023/09/23 13:04:21;;;;;;;0.90;0.73;;;33.00;52.60;;;;;;6305382;22;20678;-86
2023/09/23 13:06:52;;;;;;;1.63;0.90;;;33.00;52.10;;;;;;6303979;22;20599;-87
2023/09/23 13:09:26;;;;;;;0.32;0.32;;;33.10;52.40;;;;;;6302275;22;20188;-85
2023/09/23 13:12:06;;;;;;;2.05;1.10;;;33.10;52.70;;;;;;6302076;22;20193;-88
2023/09/23 13:14:36;;;;;;;1.15;0.50;;;33.20;53.10;;;;;;6303578;22;20240;-85
2023/09/23 13:17:26;;;;;;;0.32;0.32;;;33.30;53.40;;;;;;6305859;22;20461;-89
2023/09/23 13:19:56;;;;;;;1.10;1.00;;;33.40;53.40;;;;;;6305323;22;20188;-86
2023/09/23 13:22:29;;;;;;;1.52;0.85;;;33.60;53.40;;;;;;6303723;22;20189;-85
2023/09/23 13:24:58;;;;;;;0.40;0.35;;;33.70;52.70;;;;;;6303655;22;20223;-86
2023/09/23 13:27:43;;;;;;;0.63;0.52;;;33.70;52.90;;;;;;6305624;22;20165;-86